Hecker, Illinois
Current Conditions -  °F | °C
As of 12:58 PM on Monday 20 Oct 2014 (Local Time) from KBLV Reporting Station
Clear Clear  
Wind Chill: 22°   Ceiling: Unl
Heat Index: 22°   Visibility: 10mi
Dew Point: 12°   Wind: 8mph
Humidity: 54%   Direction: 290°WNW
Pressure: 29.94"   Gusts: NA
Location:  38.31°N, 89.99°W
Report Text: KBLV 201758Z AUTO 29007KT 10SM CLR 22/12 A2994 RMK AO2 VIS 2 1/2 RWY14L SLP140 T02190121 10219 20100
Loading
Personal Weather Stations






























Interactive Weather Map
Tropical Storm Tracking
New forecast layout! Learn more

10-Day Weather Forecast

Advertisements
Track Severe Weather on mobile